Terminal Aerodrome Forecast
Issued by NWS

Home | Current Version | Previous Version | Text Only | Print | Product List | Glossary On
Versions: 1 2 3 4 5 6 7 8 9 10 11 12 13 14 15 16 17 18 19 20 21
967
FTUS42 KTAE 230520
TAFECP
TAF
KECP 230520Z 2306/2406 VRB05KT P6SM SCT050
     FM230900 10005KT 4SM BR BKN040
     FM231400 13008KT P6SM SCT040=

USA.gov is the U.S. government's official web portal to all federal, state and local government web resources and services.